Lincoln, United Kingdom
Current Conditions -  °F | °C
As of 6:50 AM on Monday 24 Nov 2014 (Local Time) from EGXW Reporting Station
Few Clouds Few Clouds  
Wind Chill: 30°   Ceiling: Unl
Heat Index: 37°   Visibility: 6mi
Dew Point: 34°   Wind: 10mph
Humidity: 87%   Direction: 250°WSW
Pressure: 30.21"   Gusts: NA
Location:  53.23°N, 0.54°W
Report Text: EGXW 240650Z 25009KT 9999 FEW035 03/01 Q1023 BLU
Loading
Personal Weather Stations






























Interactive Weather Map New forecast layout! Learn more

10-Day Weather Forecast

Advertisements
Track Severe Weather on mobile